sensor_id;sensor_type;location;lat;lon;timestamp;P1;durP1;ratioP1;P2;durP2;ratioP2
33672;SDS011;20011;51.510;9.942;2022-11-15T00:01:42;7.50;;;2.95;;
33672;SDS011;20011;51.510;9.942;2022-11-15T00:04:27;6.68;;;3.75;;
33672;SDS011;20011;51.510;9.942;2022-11-15T00:07:13;7.00;;;3.72;;
33672;SDS011;20011;51.510;9.942;2022-11-15T00:10:18;11.07;;;3.63;;
33672;SDS011;20011;51.510;9.942;2022-11-15T00:13:08;8.00;;;3.78;;
33672;SDS011;20011;51.510;9.942;2022-11-15T00:15:58;7.72;;;3.33;;
33672;SDS011;20011;51.510;9.942;2022-11-15T00:18:45;7.72;;;4.07;;
33672;SDS011;20011;51.510;9.942;2022-11-15T00:21:35;10.07;;;3.63;;
33672;SDS011;20011;51.510;9.942;2022-11-15T00:24:20;7.35;;;3.88;;
33672;SDS011;20011;51.510;9.942;2022-11-15T00:27:06;6.97;;;3.63;;
33672;SDS011;20011;51.510;9.942;2022-11-15T00:29:52;6.93;;;3.50;;
33672;SDS011;20011;51.510;9.942;2022-11-15T00:32:38;8.05;;;3.78;;
33672;SDS011;20011;51.510;9.942;2022-11-15T00:35:23;9.27;;;3.78;;
33672;SDS011;20011;51.510;9.942;2022-11-15T00:38:08;10.63;;;3.25;;
33672;SDS011;20011;51.510;9.942;2022-11-15T00:40:54;10.95;;;3.60;;
33672;SDS011;20011;51.510;9.942;2022-11-15T00:43:40;9.77;;;4.35;;
33672;SDS011;20011;51.510;9.942;2022-11-15T00:46:28;10.38;;;3.78;;
33672;SDS011;20011;51.510;9.942;2022-11-15T00:49:13;8.63;;;3.83;;
33672;SDS011;20011;51.510;9.942;2022-11-15T00:51:59;3.90;;;2.83;;
33672;SDS011;20011;51.510;9.942;2022-11-15T00:54:45;7.88;;;3.88;;
33672;SDS011;20011;51.510;9.942;2022-11-15T00:57:30;5.88;;;3.70;;
33672;SDS011;20011;51.510;9.942;2022-11-15T01:00:16;9.23;;;4.05;;
33672;SDS011;20011;51.510;9.942;2022-11-15T01:03:01;4.05;;;3.33;;
33672;SDS011;20011;51.510;9.942;2022-11-15T01:05:47;7.13;;;3.53;;
33672;SDS011;20011;51.510;9.942;2022-11-15T01:08:33;7.40;;;3.80;;
33672;SDS011;20011;51.510;9.942;2022-11-15T01:11:18;6.70;;;3.08;;
33672;SDS011;20011;51.510;9.942;2022-11-15T01:14:03;5.75;;;3.83;;
33672;SDS011;20011;51.510;9.942;2022-11-15T01:16:49;6.65;;;3.40;;
33672;SDS011;20011;51.510;9.942;2022-11-15T01:19:35;5.88;;;4.35;;
33672;SDS011;20011;51.510;9.942;2022-11-15T01:22:20;13.50;;;3.60;;
33672;SDS011;20011;51.510;9.942;2022-11-15T01:25:06;8.40;;;3.78;;
33672;SDS011;20011;51.510;9.942;2022-11-15T01:27:51;8.13;;;3.30;;
33672;SDS011;20011;51.510;9.942;2022-11-15T01:30:37;5.38;;;3.20;;
33672;SDS011;20011;51.510;9.942;2022-11-15T01:33:22;8.88;;;3.80;;
33672;SDS011;20011;51.510;9.942;2022-11-15T01:36:12;12.23;;;4.18;;
33672;SDS011;20011;51.510;9.942;2022-11-15T01:39:00;12.20;;;3.90;;
33672;SDS011;20011;51.510;9.942;2022-11-15T01:41:46;6.70;;;3.50;;
33672;SDS011;20011;51.510;9.942;2022-11-15T01:44:37;7.55;;;3.67;;
33672;SDS011;20011;51.510;9.942;2022-11-15T01:47:41;6.10;;;3.45;;
33672;SDS011;20011;51.510;9.942;2022-11-15T01:50:30;6.25;;;3.28;;
33672;SDS011;20011;51.510;9.942;2022-11-15T01:53:17;4.50;;;3.20;;
33672;SDS011;20011;51.510;9.942;2022-11-15T01:56:07;7.15;;;3.25;;
33672;SDS011;20011;51.510;9.942;2022-11-15T01:58:56;5.32;;;3.03;;
33672;SDS011;20011;51.510;9.942;2022-11-15T02:01:43;4.03;;;2.83;;
33672;SDS011;20011;51.510;9.942;2022-11-15T02:04:30;7.00;;;3.17;;
33672;SDS011;20011;51.510;9.942;2022-11-15T02:07:18;8.13;;;3.40;;
33672;SDS011;20011;51.510;9.942;2022-11-15T02:10:07;6.57;;;3.20;;
33672;SDS011;20011;51.510;9.942;2022-11-15T02:12:54;7.13;;;3.50;;
33672;SDS011;20011;51.510;9.942;2022-11-15T02:29:28;5.88;;;3.30;;
33672;SDS011;20011;51.510;9.942;2022-11-15T02:31:59;5.57;;;3.03;;
33672;SDS011;20011;51.510;9.942;2022-11-15T02:38:08;9.55;;;3.00;;
33672;SDS011;20011;51.510;9.942;2022-11-15T02:44:34;6.22;;;2.83;;
33672;SDS011;20011;51.510;9.942;2022-11-15T02:47:24;5.38;;;2.97;;
33672;SDS011;20011;51.510;9.942;2022-11-15T02:50:13;6.20;;;3.05;;
33672;SDS011;20011;51.510;9.942;2022-11-15T02:53:03;8.65;;;3.22;;
33672;SDS011;20011;51.510;9.942;2022-11-15T02:55:49;11.90;;;3.08;;
33672;SDS011;20011;51.510;9.942;2022-11-15T03:07:29;8.98;;;3.25;;
33672;SDS011;20011;51.510;9.942;2022-11-15T03:10:48;4.72;;;3.30;;
33672;SDS011;20011;51.510;9.942;2022-11-15T03:16:50;3.90;;;2.53;;
33672;SDS011;20011;51.510;9.942;2022-11-15T03:19:50;9.15;;;3.00;;
33672;SDS011;20011;51.510;9.942;2022-11-15T03:22:39;5.75;;;3.08;;
33672;SDS011;20011;51.510;9.942;2022-11-15T03:25:28;3.30;;;2.60;;
33672;SDS011;20011;51.510;9.942;2022-11-15T03:28:18;5.80;;;3.97;;
33672;SDS011;20011;51.510;9.942;2022-11-15T03:31:08;4.32;;;3.38;;
33672;SDS011;20011;51.510;9.942;2022-11-15T03:34:58;4.38;;;3.38;;
33672;SDS011;20011;51.510;9.942;2022-11-15T03:41:08;4.45;;;2.83;;
33672;SDS011;20011;51.510;9.942;2022-11-15T03:47:17;6.68;;;2.58;;
33672;SDS011;20011;51.510;9.942;2022-11-15T03:50:14;4.78;;;3.05;;
33672;SDS011;20011;51.510;9.942;2022-11-15T03:53:03;4.70;;;2.73;;
33672;SDS011;20011;51.510;9.942;2022-11-15T03:55:48;4.40;;;2.78;;
33672;SDS011;20011;51.510;9.942;2022-11-15T03:58:34;5.18;;;3.30;;
33672;SDS011;20011;51.510;9.942;2022-11-15T04:01:20;3.75;;;2.80;;
33672;SDS011;20011;51.510;9.942;2022-11-15T04:04:05;8.85;;;3.80;;
33672;SDS011;20011;51.510;9.942;2022-11-15T04:06:51;4.95;;;3.10;;
33672;SDS011;20011;51.510;9.942;2022-11-15T04:09:36;13.32;;;3.55;;
33672;SDS011;20011;51.510;9.942;2022-11-15T04:12:41;5.05;;;2.70;;
33672;SDS011;20011;51.510;9.942;2022-11-15T04:15:28;5.75;;;2.38;;
33672;SDS011;20011;51.510;9.942;2022-11-15T04:18:14;8.25;;;3.45;;
33672;SDS011;20011;51.510;9.942;2022-11-15T04:20:59;5.55;;;2.92;;
33672;SDS011;20011;51.510;9.942;2022-11-15T04:24:03;9.13;;;3.00;;
33672;SDS011;20011;51.510;9.942;2022-11-15T04:26:52;6.80;;;3.65;;
33672;SDS011;20011;51.510;9.942;2022-11-15T04:29:37;6.18;;;3.50;;
33672;SDS011;20011;51.510;9.942;2022-11-15T04:32:23;5.10;;;2.85;;
33672;SDS011;20011;51.510;9.942;2022-11-15T04:35:08;7.30;;;3.20;;
33672;SDS011;20011;51.510;9.942;2022-11-15T04:37:54;5.88;;;3.38;;
33672;SDS011;20011;51.510;9.942;2022-11-15T04:40:40;5.15;;;3.30;;
33672;SDS011;20011;51.510;9.942;2022-11-15T04:43:26;4.95;;;2.80;;
33672;SDS011;20011;51.510;9.942;2022-11-15T04:46:12;7.30;;;3.35;;
33672;SDS011;20011;51.510;9.942;2022-11-15T04:48:57;5.40;;;3.05;;
33672;SDS011;20011;51.510;9.942;2022-11-15T04:51:43;6.82;;;3.15;;
33672;SDS011;20011;51.510;9.942;2022-11-15T04:54:29;7.60;;;3.20;;
33672;SDS011;20011;51.510;9.942;2022-11-15T04:57:14;6.40;;;3.28;;
33672;SDS011;20011;51.510;9.942;2022-11-15T05:00:00;5.47;;;3.35;;
33672;SDS011;20011;51.510;9.942;2022-11-15T05:02:48;5.15;;;2.75;;
33672;SDS011;20011;51.510;9.942;2022-11-15T05:05:52;5.40;;;3.17;;
33672;SDS011;20011;51.510;9.942;2022-11-15T05:08:38;6.88;;;3.13;;
33672;SDS011;20011;51.510;9.942;2022-11-15T05:11:23;6.68;;;2.95;;
33672;SDS011;20011;51.510;9.942;2022-11-15T05:14:09;4.95;;;2.85;;
33672;SDS011;20011;51.510;9.942;2022-11-15T05:16:55;4.22;;;2.78;;
33672;SDS011;20011;51.510;9.942;2022-11-15T05:19:41;9.52;;;3.25;;
33672;SDS011;20011;51.510;9.942;2022-11-15T05:22:26;5.13;;;2.95;;
33672;SDS011;20011;51.510;9.942;2022-11-15T05:25:12;9.07;;;2.78;;
33672;SDS011;20011;51.510;9.942;2022-11-15T05:27:58;6.32;;;3.33;;
33672;SDS011;20011;51.510;9.942;2022-11-15T05:30:43;6.20;;;3.65;;
33672;SDS011;20011;51.510;9.942;2022-11-15T05:33:29;5.28;;;3.28;;
33672;SDS011;20011;51.510;9.942;2022-11-15T05:39:08;4.05;;;2.97;;
33672;SDS011;20011;51.510;9.942;2022-11-15T05:41:55;4.63;;;2.85;;
33672;SDS011;20011;51.510;9.942;2022-11-15T05:44:47;8.35;;;3.85;;
33672;SDS011;20011;51.510;9.942;2022-11-15T05:47:34;7.72;;;3.70;;
33672;SDS011;20011;51.510;9.942;2022-11-15T05:50:22;7.90;;;3.40;;
33672;SDS011;20011;51.510;9.942;2022-11-15T05:53:08;5.30;;;3.53;;
33672;SDS011;20011;51.510;9.942;2022-11-15T05:55:55;4.47;;;3.10;;
33672;SDS011;20011;51.510;9.942;2022-11-15T05:58:41;7.47;;;3.78;;
33672;SDS011;20011;51.510;9.942;2022-11-15T06:01:27;6.65;;;3.90;;
33672;SDS011;20011;51.510;9.942;2022-11-15T06:04:13;6.03;;;3.65;;
33672;SDS011;20011;51.510;9.942;2022-11-15T06:06:59;8.57;;;3.72;;
33672;SDS011;20011;51.510;9.942;2022-11-15T06:09:44;7.05;;;3.58;;
33672;SDS011;20011;51.510;9.942;2022-11-15T06:12:30;7.03;;;3.85;;
33672;SDS011;20011;51.510;9.942;2022-11-15T06:15:16;6.32;;;3.65;;
33672;SDS011;20011;51.510;9.942;2022-11-15T06:18:01;7.55;;;4.90;;
33672;SDS011;20011;51.510;9.942;2022-11-15T06:20:47;5.45;;;3.90;;
33672;SDS011;20011;51.510;9.942;2022-11-15T06:23:33;8.00;;;4.20;;
33672;SDS011;20011;51.510;9.942;2022-11-15T06:26:19;8.30;;;3.50;;
33672;SDS011;20011;51.510;9.942;2022-11-15T06:29:04;6.60;;;3.47;;
33672;SDS011;20011;51.510;9.942;2022-11-15T06:31:50;6.10;;;3.90;;
33672;SDS011;20011;51.510;9.942;2022-11-15T06:34:35;4.28;;;2.90;;
33672;SDS011;20011;51.510;9.942;2022-11-15T06:37:21;6.25;;;3.75;;
33672;SDS011;20011;51.510;9.942;2022-11-15T06:40:07;6.07;;;3.47;;
33672;SDS011;20011;51.510;9.942;2022-11-15T06:43:00;7.43;;;3.38;;
33672;SDS011;20011;51.510;9.942;2022-11-15T06:45:45;5.97;;;3.33;;
33672;SDS011;20011;51.510;9.942;2022-11-15T06:48:31;6.45;;;3.70;;
33672;SDS011;20011;51.510;9.942;2022-11-15T06:51:17;7.10;;;3.05;;
33672;SDS011;20011;51.510;9.942;2022-11-15T06:54:03;7.63;;;3.00;;
33672;SDS011;20011;51.510;9.942;2022-11-15T06:56:49;6.07;;;3.50;;
33672;SDS011;20011;51.510;9.942;2022-11-15T06:59:35;6.72;;;4.00;;
33672;SDS011;20011;51.510;9.942;2022-11-15T07:02:24;5.60;;;3.60;;
33672;SDS011;20011;51.510;9.942;2022-11-15T07:05:10;10.00;;;3.95;;
33672;SDS011;20011;51.510;9.942;2022-11-15T07:07:57;3.75;;;3.42;;
33672;SDS011;20011;51.510;9.942;2022-11-15T07:10:43;7.55;;;3.50;;
33672;SDS011;20011;51.510;9.942;2022-11-15T07:13:29;8.35;;;3.70;;
33672;SDS011;20011;51.510;9.942;2022-11-15T07:16:19;6.25;;;3.50;;
33672;SDS011;20011;51.510;9.942;2022-11-15T07:19:04;6.28;;;3.65;;
33672;SDS011;20011;51.510;9.942;2022-11-15T07:21:50;7.90;;;4.50;;
33672;SDS011;20011;51.510;9.942;2022-11-15T07:24:36;6.50;;;3.60;;
33672;SDS011;20011;51.510;9.942;2022-11-15T07:27:21;5.40;;;3.38;;
33672;SDS011;20011;51.510;9.942;2022-11-15T07:30:07;6.35;;;3.63;;
33672;SDS011;20011;51.510;9.942;2022-11-15T07:32:54;6.00;;;4.10;;
33672;SDS011;20011;51.510;9.942;2022-11-15T07:35:40;5.43;;;3.83;;
33672;SDS011;20011;51.510;9.942;2022-11-15T07:38:25;5.82;;;3.60;;
33672;SDS011;20011;51.510;9.942;2022-11-15T07:41:11;5.57;;;3.45;;
33672;SDS011;20011;51.510;9.942;2022-11-15T07:43:56;7.82;;;3.40;;
33672;SDS011;20011;51.510;9.942;2022-11-15T07:46:42;4.57;;;3.40;;
33672;SDS011;20011;51.510;9.942;2022-11-15T07:49:27;5.93;;;3.22;;
33672;SDS011;20011;51.510;9.942;2022-11-15T07:52:13;11.20;;;3.75;;
33672;SDS011;20011;51.510;9.942;2022-11-15T07:54:58;6.35;;;3.90;;
33672;SDS011;20011;51.510;9.942;2022-11-15T07:57:44;15.25;;;4.50;;
33672;SDS011;20011;51.510;9.942;2022-11-15T08:00:29;7.65;;;3.75;;
33672;SDS011;20011;51.510;9.942;2022-11-15T08:03:16;7.63;;;3.75;;
33672;SDS011;20011;51.510;9.942;2022-11-15T08:06:02;5.78;;;2.88;;
33672;SDS011;20011;51.510;9.942;2022-11-15T08:08:48;4.97;;;3.38;;
33672;SDS011;20011;51.510;9.942;2022-11-15T08:11:34;4.20;;;3.30;;
33672;SDS011;20011;51.510;9.942;2022-11-15T08:14:19;10.23;;;3.75;;
33672;SDS011;20011;51.510;9.942;2022-11-15T08:17:06;9.75;;;3.38;;
33672;SDS011;20011;51.510;9.942;2022-11-15T08:19:52;6.57;;;3.60;;
33672;SDS011;20011;51.510;9.942;2022-11-15T08:22:37;6.38;;;3.78;;
33672;SDS011;20011;51.510;9.942;2022-11-15T08:25:23;6.18;;;3.65;;
33672;SDS011;20011;51.510;9.942;2022-11-15T08:28:12;5.50;;;3.73;;
33672;SDS011;20011;51.510;9.942;2022-11-15T08:31:00;6.82;;;4.28;;
33672;SDS011;20011;51.510;9.942;2022-11-15T08:33:47;7.30;;;3.67;;
33672;SDS011;20011;51.510;9.942;2022-11-15T08:36:32;9.57;;;3.72;;
33672;SDS011;20011;51.510;9.942;2022-11-15T08:39:29;8.77;;;3.70;;
33672;SDS011;20011;51.510;9.942;2022-11-15T08:42:15;6.78;;;4.50;;
33672;SDS011;20011;51.510;9.942;2022-11-15T08:45:04;4.28;;;3.03;;
33672;SDS011;20011;51.510;9.942;2022-11-15T08:47:50;7.32;;;3.70;;
33672;SDS011;20011;51.510;9.942;2022-11-15T08:50:38;11.85;;;4.25;;
33672;SDS011;20011;51.510;9.942;2022-11-15T08:53:24;6.60;;;3.10;;
33672;SDS011;20011;51.510;9.942;2022-11-15T08:56:10;10.90;;;4.53;;
33672;SDS011;20011;51.510;9.942;2022-11-15T08:58:56;7.10;;;4.05;;
33672;SDS011;20011;51.510;9.942;2022-11-15T09:01:42;10.05;;;4.35;;
33672;SDS011;20011;51.510;9.942;2022-11-15T09:04:28;6.97;;;3.38;;
33672;SDS011;20011;51.510;9.942;2022-11-15T09:07:13;10.98;;;3.95;;
33672;SDS011;20011;51.510;9.942;2022-11-15T09:09:59;6.20;;;3.65;;
33672;SDS011;20011;51.510;9.942;2022-11-15T09:12:44;8.55;;;4.40;;
33672;SDS011;20011;51.510;9.942;2022-11-15T09:15:33;8.55;;;3.97;;
33672;SDS011;20011;51.510;9.942;2022-11-15T09:18:18;5.30;;;4.10;;
33672;SDS011;20011;51.510;9.942;2022-11-15T09:21:07;8.00;;;4.43;;
33672;SDS011;20011;51.510;9.942;2022-11-15T09:23:54;10.10;;;4.05;;
33672;SDS011;20011;51.510;9.942;2022-11-15T09:26:40;8.27;;;3.85;;
33672;SDS011;20011;51.510;9.942;2022-11-15T09:29:26;5.00;;;3.33;;
33672;SDS011;20011;51.510;9.942;2022-11-15T09:32:11;4.68;;;3.40;;
33672;SDS011;20011;51.510;9.942;2022-11-15T09:34:57;5.30;;;3.15;;
33672;SDS011;20011;51.510;9.942;2022-11-15T09:37:43;6.78;;;3.42;;
33672;SDS011;20011;51.510;9.942;2022-11-15T09:40:29;7.13;;;4.07;;
33672;SDS011;20011;51.510;9.942;2022-11-15T09:49:13;6.97;;;3.35;;
33672;SDS011;20011;51.510;9.942;2022-11-15T09:52:00;7.05;;;3.65;;
33672;SDS011;20011;51.510;9.942;2022-11-15T09:57:21;4.60;;;2.78;;
33672;SDS011;20011;51.510;9.942;2022-11-15T10:03:07;6.53;;;3.03;;
33672;SDS011;20011;51.510;9.942;2022-11-15T10:05:42;4.53;;;3.13;;
33672;SDS011;20011;51.510;9.942;2022-11-15T10:10:51;5.75;;;2.80;;
33672;SDS011;20011;51.510;9.942;2022-11-15T10:13:43;6.22;;;3.47;;
33672;SDS011;20011;51.510;9.942;2022-11-15T10:24:40;7.68;;;2.95;;
33672;SDS011;20011;51.510;9.942;2022-11-15T10:27:11;5.70;;;3.38;;
33672;SDS011;20011;51.510;9.942;2022-11-15T10:29:49;13.63;;;3.13;;
33672;SDS011;20011;51.510;9.942;2022-11-15T10:32:18;5.38;;;2.95;;
33672;SDS011;20011;51.510;9.942;2022-11-15T10:34:47;6.80;;;3.20;;
33672;SDS011;20011;51.510;9.942;2022-11-15T10:37:20;5.60;;;2.80;;
33672;SDS011;20011;51.510;9.942;2022-11-15T10:40:04;6.95;;;4.68;;
33672;SDS011;20011;51.510;9.942;2022-11-15T10:42:33;5.18;;;3.38;;
33672;SDS011;20011;51.510;9.942;2022-11-15T10:45:00;4.28;;;3.08;;
33672;SDS011;20011;51.510;9.942;2022-11-15T10:47:30;5.80;;;2.97;;
33672;SDS011;20011;51.510;9.942;2022-11-15T10:50:25;6.30;;;3.10;;
33672;SDS011;20011;51.510;9.942;2022-11-15T10:52:55;12.98;;;3.45;;
33672;SDS011;20011;51.510;9.942;2022-11-15T10:55:29;5.93;;;3.40;;
33672;SDS011;20011;51.510;9.942;2022-11-15T10:58:05;8.60;;;3.30;;
33672;SDS011;20011;51.510;9.942;2022-11-15T11:00:48;9.90;;;2.92;;
33672;SDS011;20011;51.510;9.942;2022-11-15T11:06:28;3.33;;;2.85;;
33672;SDS011;20011;51.510;9.942;2022-11-15T11:08:57;9.38;;;2.65;;
33672;SDS011;20011;51.510;9.942;2022-11-15T11:11:45;11.20;;;3.15;;
33672;SDS011;20011;51.510;9.942;2022-11-15T11:17:00;5.97;;;3.00;;
33672;SDS011;20011;51.510;9.942;2022-11-15T11:19:35;3.40;;;2.40;;
33672;SDS011;20011;51.510;9.942;2022-11-15T11:36:50;8.27;;;2.72;;
33672;SDS011;20011;51.510;9.942;2022-11-15T11:44:57;4.30;;;2.70;;
33672;SDS011;20011;51.510;9.942;2022-11-15T11:47:43;5.47;;;2.90;;
33672;SDS011;20011;51.510;9.942;2022-11-15T11:50:17;5.45;;;3.00;;
33672;SDS011;20011;51.510;9.942;2022-11-15T11:52:54;4.70;;;2.83;;
33672;SDS011;20011;51.510;9.942;2022-11-15T11:55:43;5.15;;;3.20;;
33672;SDS011;20011;51.510;9.942;2022-11-15T11:58:33;4.85;;;3.25;;
33672;SDS011;20011;51.510;9.942;2022-11-15T12:09:20;4.65;;;2.60;;
33672;SDS011;20011;51.510;9.942;2022-11-15T12:17:36;3.20;;;2.10;;
33672;SDS011;20011;51.510;9.942;2022-11-15T12:20:13;4.75;;;2.97;;
33672;SDS011;20011;51.510;9.942;2022-11-15T12:26:04;5.70;;;2.70;;
33672;SDS011;20011;51.510;9.942;2022-11-15T12:28:49;6.00;;;3.03;;
33672;SDS011;20011;51.510;9.942;2022-11-15T12:31:43;4.65;;;2.50;;
33672;SDS011;20011;51.510;9.942;2022-11-15T12:36:49;3.90;;;3.15;;
33672;SDS011;20011;51.510;9.942;2022-11-15T12:39:17;2.92;;;2.28;;
33672;SDS011;20011;51.510;9.942;2022-11-15T13:02:28;10.40;;;3.13;;
33672;SDS011;20011;51.510;9.942;2022-11-15T13:27:57;8.10;;;3.75;;
33672;SDS011;20011;51.510;9.942;2022-11-15T13:30:31;5.25;;;3.25;;
33672;SDS011;20011;51.510;9.942;2022-11-15T13:33:15;5.85;;;3.17;;
33672;SDS011;20011;51.510;9.942;2022-11-15T13:38:55;6.30;;;3.13;;
33672;SDS011;20011;51.510;9.942;2022-11-15T13:41:31;10.05;;;3.25;;
33672;SDS011;20011;51.510;9.942;2022-11-15T13:44:03;5.63;;;3.22;;
33672;SDS011;20011;51.510;9.942;2022-11-15T13:46:44;9.73;;;3.47;;
33672;SDS011;20011;51.510;9.942;2022-11-15T13:49:11;7.53;;;3.63;;
33672;SDS011;20011;51.510;9.942;2022-11-15T13:56:37;2.85;;;2.58;;
33672;SDS011;20011;51.510;9.942;2022-11-15T13:59:10;5.60;;;3.22;;
33672;SDS011;20011;51.510;9.942;2022-11-15T14:01:43;6.00;;;3.05;;
33672;SDS011;20011;51.510;9.942;2022-11-15T14:04:11;6.63;;;3.40;;
33672;SDS011;20011;51.510;9.942;2022-11-15T14:06:44;15.20;;;2.83;;
33672;SDS011;20011;51.510;9.942;2022-11-15T14:11:59;7.88;;;3.85;;
33672;SDS011;20011;51.510;9.942;2022-11-15T14:14:28;6.63;;;3.15;;
33672;SDS011;20011;51.510;9.942;2022-11-15T14:16:59;6.07;;;3.30;;
33672;SDS011;20011;51.510;9.942;2022-11-15T14:22:13;9.85;;;3.70;;
33672;SDS011;20011;51.510;9.942;2022-11-15T14:24:42;5.00;;;3.47;;
33672;SDS011;20011;51.510;9.942;2022-11-15T14:29:48;6.85;;;3.72;;
33672;SDS011;20011;51.510;9.942;2022-11-15T14:32:16;6.00;;;3.25;;
33672;SDS011;20011;51.510;9.942;2022-11-15T14:34:53;4.63;;;3.58;;
33672;SDS011;20011;51.510;9.942;2022-11-15T14:37:26;8.38;;;3.85;;
33672;SDS011;20011;51.510;9.942;2022-11-15T14:39:55;9.70;;;3.70;;
33672;SDS011;20011;51.510;9.942;2022-11-15T14:42:22;11.15;;;3.80;;
33672;SDS011;20011;51.510;9.942;2022-11-15T14:44:50;7.22;;;3.83;;
33672;SDS011;20011;51.510;9.942;2022-11-15T14:47:17;10.27;;;3.58;;
33672;SDS011;20011;51.510;9.942;2022-11-15T14:49:52;10.88;;;3.08;;
33672;SDS011;20011;51.510;9.942;2022-11-15T14:52:25;7.03;;;3.47;;
33672;SDS011;20011;51.510;9.942;2022-11-15T14:54:59;5.45;;;3.50;;
33672;SDS011;20011;51.510;9.942;2022-11-15T14:57:31;7.32;;;3.33;;
33672;SDS011;20011;51.510;9.942;2022-11-15T15:00:02;7.07;;;3.60;;
33672;SDS011;20011;51.510;9.942;2022-11-15T15:02:42;8.45;;;3.92;;
33672;SDS011;20011;51.510;9.942;2022-11-15T15:07:48;3.78;;;3.10;;
33672;SDS011;20011;51.510;9.942;2022-11-15T15:10:17;5.88;;;3.60;;
33672;SDS011;20011;51.510;9.942;2022-11-15T15:13:14;7.45;;;3.45;;
33672;SDS011;20011;51.510;9.942;2022-11-15T15:15:52;9.25;;;3.53;;
33672;SDS011;20011;51.510;9.942;2022-11-15T15:18:23;16.05;;;4.15;;
33672;SDS011;20011;51.510;9.942;2022-11-15T15:20:55;7.35;;;3.28;;
33672;SDS011;20011;51.510;9.942;2022-11-15T15:23:29;5.70;;;3.30;;
33672;SDS011;20011;51.510;9.942;2022-11-15T15:25:57;6.20;;;3.70;;
33672;SDS011;20011;51.510;9.942;2022-11-15T15:28:24;6.65;;;3.65;;
33672;SDS011;20011;51.510;9.942;2022-11-15T15:30:59;4.72;;;3.45;;
33672;SDS011;20011;51.510;9.942;2022-11-15T15:33:26;6.43;;;3.83;;
33672;SDS011;20011;51.510;9.942;2022-11-15T15:35:53;6.45;;;3.80;;
33672;SDS011;20011;51.510;9.942;2022-11-15T15:38:20;8.52;;;4.80;;
33672;SDS011;20011;51.510;9.942;2022-11-15T15:40:47;9.90;;;4.05;;
33672;SDS011;20011;51.510;9.942;2022-11-15T15:43:17;7.38;;;3.30;;
33672;SDS011;20011;51.510;9.942;2022-11-15T15:45:44;4.97;;;3.58;;
33672;SDS011;20011;51.510;9.942;2022-11-15T15:48:15;7.20;;;3.42;;
33672;SDS011;20011;51.510;9.942;2022-11-15T15:50:43;6.60;;;3.80;;
33672;SDS011;20011;51.510;9.942;2022-11-15T15:53:10;6.93;;;4.07;;
33672;SDS011;20011;51.510;9.942;2022-11-15T15:55:38;10.00;;;4.28;;
33672;SDS011;20011;51.510;9.942;2022-11-15T15:58:06;9.77;;;3.75;;
33672;SDS011;20011;51.510;9.942;2022-11-15T16:00:34;7.70;;;4.07;;
33672;SDS011;20011;51.510;9.942;2022-11-15T16:03:02;6.07;;;3.58;;
33672;SDS011;20011;51.510;9.942;2022-11-15T16:05:30;6.47;;;3.63;;
33672;SDS011;20011;51.510;9.942;2022-11-15T16:07:57;5.75;;;3.97;;
33672;SDS011;20011;51.510;9.942;2022-11-15T16:10:25;11.18;;;4.03;;
33672;SDS011;20011;51.510;9.942;2022-11-15T16:12:54;11.95;;;4.60;;
33672;SDS011;20011;51.510;9.942;2022-11-15T16:15:23;7.93;;;4.78;;
33672;SDS011;20011;51.510;9.942;2022-11-15T16:17:52;7.15;;;4.82;;
33672;SDS011;20011;51.510;9.942;2022-11-15T16:20:22;15.52;;;5.70;;
33672;SDS011;20011;51.510;9.942;2022-11-15T16:23:06;9.18;;;5.00;;
33672;SDS011;20011;51.510;9.942;2022-11-15T16:25:41;9.18;;;4.75;;
33672;SDS011;20011;51.510;9.942;2022-11-15T16:28:22;8.05;;;4.90;;
33672;SDS011;20011;51.510;9.942;2022-11-15T16:31:10;8.00;;;4.85;;
33672;SDS011;20011;51.510;9.942;2022-11-15T16:33:38;9.48;;;5.22;;
33672;SDS011;20011;51.510;9.942;2022-11-15T16:36:12;13.65;;;4.47;;
33672;SDS011;20011;51.510;9.942;2022-11-15T16:38:56;10.02;;;5.32;;
33672;SDS011;20011;51.510;9.942;2022-11-15T16:41:23;6.57;;;5.07;;
33672;SDS011;20011;51.510;9.942;2022-11-15T16:43:50;10.60;;;5.00;;
33672;SDS011;20011;51.510;9.942;2022-11-15T16:46:25;8.98;;;4.97;;
33672;SDS011;20011;51.510;9.942;2022-11-15T16:48:53;11.43;;;5.45;;
33672;SDS011;20011;51.510;9.942;2022-11-15T16:51:20;13.45;;;4.75;;
33672;SDS011;20011;51.510;9.942;2022-11-15T16:53:48;7.47;;;4.93;;
33672;SDS011;20011;51.510;9.942;2022-11-15T16:56:28;6.63;;;4.50;;
33672;SDS011;20011;51.510;9.942;2022-11-15T16:58:57;9.40;;;5.22;;
33672;SDS011;20011;51.510;9.942;2022-11-15T17:01:26;8.52;;;4.53;;
33672;SDS011;20011;51.510;9.942;2022-11-15T17:03:54;8.43;;;5.60;;
33672;SDS011;20011;51.510;9.942;2022-11-15T17:06:23;13.57;;;5.57;;
33672;SDS011;20011;51.510;9.942;2022-11-15T17:08:51;9.40;;;5.07;;
33672;SDS011;20011;51.510;9.942;2022-11-15T17:11:19;8.75;;;4.82;;
33672;SDS011;20011;51.510;9.942;2022-11-15T17:13:49;6.45;;;4.38;;
33672;SDS011;20011;51.510;9.942;2022-11-15T17:16:16;6.68;;;4.43;;
33672;SDS011;20011;51.510;9.942;2022-11-15T17:18:49;12.18;;;4.80;;
33672;SDS011;20011;51.510;9.942;2022-11-15T17:21:18;10.23;;;4.90;;
33672;SDS011;20011;51.510;9.942;2022-11-15T17:23:47;11.33;;;4.70;;
33672;SDS011;20011;51.510;9.942;2022-11-15T17:26:14;7.28;;;4.20;;
33672;SDS011;20011;51.510;9.942;2022-11-15T17:28:55;6.57;;;3.97;;
33672;SDS011;20011;51.510;9.942;2022-11-15T17:31:22;6.55;;;3.67;;
33672;SDS011;20011;51.510;9.942;2022-11-15T17:33:50;6.15;;;3.53;;
33672;SDS011;20011;51.510;9.942;2022-11-15T17:36:17;5.57;;;3.97;;
33672;SDS011;20011;51.510;9.942;2022-11-15T17:38:44;8.13;;;4.00;;
33672;SDS011;20011;51.510;9.942;2022-11-15T17:41:15;11.90;;;4.55;;
33672;SDS011;20011;51.510;9.942;2022-11-15T17:43:42;6.03;;;4.25;;
33672;SDS011;20011;51.510;9.942;2022-11-15T17:46:11;11.23;;;5.05;;
33672;SDS011;20011;51.510;9.942;2022-11-15T17:48:39;7.22;;;5.10;;
33672;SDS011;20011;51.510;9.942;2022-11-15T17:51:09;8.38;;;4.53;;
33672;SDS011;20011;51.510;9.942;2022-11-15T17:53:38;14.55;;;6.35;;
33672;SDS011;20011;51.510;9.942;2022-11-15T17:56:08;11.05;;;5.65;;
33672;SDS011;20011;51.510;9.942;2022-11-15T17:58:40;11.02;;;5.78;;
33672;SDS011;20011;51.510;9.942;2022-11-15T18:01:08;11.23;;;6.25;;
33672;SDS011;20011;51.510;9.942;2022-11-15T18:03:42;12.25;;;6.38;;
33672;SDS011;20011;51.510;9.942;2022-11-15T18:06:10;9.52;;;5.95;;
33672;SDS011;20011;51.510;9.942;2022-11-15T18:08:38;12.90;;;6.43;;
33672;SDS011;20011;51.510;9.942;2022-11-15T18:11:10;12.70;;;5.18;;
33672;SDS011;20011;51.510;9.942;2022-11-15T18:13:43;8.45;;;5.40;;
33672;SDS011;20011;51.510;9.942;2022-11-15T18:16:18;11.23;;;5.55;;
33672;SDS011;20011;51.510;9.942;2022-11-15T18:18:46;12.75;;;6.10;;
33672;SDS011;20011;51.510;9.942;2022-11-15T18:21:15;15.63;;;5.75;;
33672;SDS011;20011;51.510;9.942;2022-11-15T18:23:45;10.95;;;6.13;;
33672;SDS011;20011;51.510;9.942;2022-11-15T18:26:15;12.90;;;5.85;;
33672;SDS011;20011;51.510;9.942;2022-11-15T18:28:44;12.73;;;6.45;;
33672;SDS011;20011;51.510;9.942;2022-11-15T18:31:20;10.45;;;5.70;;
33672;SDS011;20011;51.510;9.942;2022-11-15T18:33:49;8.15;;;5.38;;
33672;SDS011;20011;51.510;9.942;2022-11-15T18:36:18;9.85;;;6.22;;
33672;SDS011;20011;51.510;9.942;2022-11-15T18:38:51;9.25;;;5.95;;
33672;SDS011;20011;51.510;9.942;2022-11-15T18:41:21;7.53;;;5.28;;
33672;SDS011;20011;51.510;9.942;2022-11-15T18:43:51;11.40;;;5.93;;
33672;SDS011;20011;51.510;9.942;2022-11-15T18:46:19;7.47;;;5.57;;
33672;SDS011;20011;51.510;9.942;2022-11-15T18:48:48;12.82;;;5.40;;
33672;SDS011;20011;51.510;9.942;2022-11-15T18:51:23;10.88;;;5.82;;
33672;SDS011;20011;51.510;9.942;2022-11-15T18:53:55;8.10;;;5.15;;
33672;SDS011;20011;51.510;9.942;2022-11-15T18:56:26;8.40;;;4.97;;
33672;SDS011;20011;51.510;9.942;2022-11-15T18:58:55;8.95;;;5.20;;